Time;durP1;ratioP1;P1;durP2;ratioP2;P2;SDS_P1;SDS_P2;PMS_P1;PMS_P2;Temp;Humidity;BMP_temperature;BMP_pressure;BME280_temperature;BME280_humidity;BME280_pressure;Samples;Min_cycle;Max_cycle;Signal;HPM_P1;HPM_P2
2023/02/14 00:00:57;;;;;;;26.90;15.10;;;7.30;99.90;;;;;;5078530;28;20464;-72
2023/02/14 00:03:24;;;;;;;26.40;14.27;;;7.30;99.90;;;;;;5078094;28;20557;-72
2023/02/14 00:05:51;;;;;;;30.00;16.93;;;7.30;99.90;;;;;;5078298;28;20454;-72
2023/02/14 00:08:18;;;;;;;27.07;15.10;;;7.30;99.90;;;;;;5078187;28;20454;-72
2023/02/14 00:10:44;;;;;;;27.20;15.87;;;7.30;99.90;;;;;;5077617;28;21014;-72
2023/02/14 00:13:11;;;;;;;27.47;14.80;;;7.30;99.90;;;;;;5077658;28;21002;-71
2023/02/14 00:15:38;;;;;;;30.57;15.30;;;7.40;99.90;;;;;;5078224;28;20833;-71
2023/02/14 00:18:05;;;;;;;32.20;15.50;;;7.40;99.90;;;;;;5077962;28;20462;-72
2023/02/14 00:20:32;;;;;;;25.20;15.63;;;7.40;99.90;;;;;;5077669;28;20461;-72
2023/02/14 00:23:00;;;;;;;28.43;15.87;;;7.40;99.90;;;;;;5077928;28;20850;-71
2023/02/14 00:25:26;;;;;;;27.87;14.77;;;7.30;99.90;;;;;;5078736;28;20454;-71
2023/02/14 00:27:54;;;;;;;24.37;14.03;;;7.40;99.90;;;;;;5077881;28;20458;-71
2023/02/14 00:30:21;;;;;;;25.10;14.50;;;7.30;99.90;;;;;;5079608;28;20474;-72
2023/02/14 00:32:49;;;;;;;24.00;14.80;;;7.30;99.90;;;;;;5082111;28;20554;-72
2023/02/14 00:35:16;;;;;;;25.40;15.00;;;7.30;99.90;;;;;;5079311;28;20454;-71
2023/02/14 00:37:43;;;;;;;26.20;15.20;;;7.40;99.90;;;;;;5078166;28;20468;-71
2023/02/14 00:40:10;;;;;;;28.37;14.57;;;7.30;99.90;;;;;;5078402;28;20957;-72
2023/02/14 00:42:37;;;;;;;26.10;14.30;;;7.30;99.90;;;;;;5078766;28;20490;-71
2023/02/14 00:45:04;;;;;;;31.60;15.20;;;7.30;99.90;;;;;;5077745;28;20545;-72
2023/02/14 00:47:31;;;;;;;32.83;17.40;;;7.40;99.90;;;;;;5077925;28;20542;-72
2023/02/14 00:50:01;;;;;;;29.07;16.27;;;7.40;99.90;;;;;;5077495;28;20478;-71
2023/02/14 00:52:28;;;;;;;33.23;15.30;;;7.40;99.90;;;;;;5078135;28;20462;-71
2023/02/14 00:54:56;;;;;;;27.63;14.63;;;7.40;99.90;;;;;;5077047;28;20545;-72
2023/02/14 00:57:22;;;;;;;29.20;14.87;;;7.40;99.90;;;;;;5077072;28;20464;-71
2023/02/14 00:59:49;;;;;;;28.20;16.47;;;7.40;99.90;;;;;;5076798;28;21008;-71
2023/02/14 01:02:16;;;;;;;29.87;15.63;;;7.40;99.90;;;;;;5077661;28;20468;-72
2023/02/14 01:04:43;;;;;;;25.07;15.03;;;7.40;99.90;;;;;;5077256;28;20454;-72
2023/02/14 01:07:11;;;;;;;29.03;15.67;;;7.30;99.90;;;;;;5077048;28;20454;-71
2023/02/14 01:09:38;;;;;;;27.33;15.23;;;7.30;99.90;;;;;;5076969;28;20885;-71
2023/02/14 01:12:05;;;;;;;27.87;15.73;;;7.40;99.90;;;;;;5076604;28;20541;-72
2023/02/14 01:14:32;;;;;;;25.80;14.60;;;7.30;99.90;;;;;;5076758;28;20559;-70
2023/02/14 01:16:59;;;;;;;27.73;16.43;;;7.30;99.90;;;;;;5076914;28;20465;-70
2023/02/14 01:19:26;;;;;;;28.03;16.53;;;7.30;99.90;;;;;;5077634;28;20545;-71
2023/02/14 01:21:53;;;;;;;27.60;13.90;;;7.30;99.90;;;;;;5078467;28;20911;-72
2023/02/14 01:24:21;;;;;;;31.40;15.30;;;7.30;99.90;;;;;;5076984;28;20465;-72
2023/02/14 01:26:48;;;;;;;24.10;15.30;;;7.30;99.90;;;;;;5077003;28;20875;-72
2023/02/14 01:29:15;;;;;;;26.67;15.20;;;7.30;99.90;;;;;;5076797;28;20464;-71
2023/02/14 01:31:41;;;;;;;25.80;15.40;;;7.30;99.90;;;;;;5076491;28;20488;-71
2023/02/14 01:34:08;;;;;;;25.00;15.87;;;7.30;99.90;;;;;;5076470;28;20458;-71
2023/02/14 01:36:37;;;;;;;28.40;15.33;;;7.30;99.90;;;;;;5076365;28;20450;-72
2023/02/14 01:39:07;;;;;;;29.07;15.60;;;7.30;99.90;;;;;;5076454;28;20462;-71
2023/02/14 01:41:37;;;;;;;22.40;13.60;;;7.30;99.90;;;;;;5075178;28;20478;-72
2023/02/14 01:44:06;;;;;;;25.80;15.17;;;7.30;99.90;;;;;;5075690;28;20472;-71
2023/02/14 01:46:35;;;;;;;30.97;15.50;;;7.30;99.90;;;;;;5075925;28;20458;-72
2023/02/14 01:49:06;;;;;;;25.77;14.30;;;7.30;99.90;;;;;;5075823;28;20461;-71
2023/02/14 01:51:35;;;;;;;31.17;16.83;;;7.30;99.90;;;;;;5076055;28;20476;-71
2023/02/14 01:54:03;;;;;;;25.97;14.60;;;7.30;99.90;;;;;;5076261;28;20911;-70
2023/02/14 01:56:36;;;;;;;28.50;15.67;;;7.30;99.90;;;;;;5075633;28;20957;-70
2023/02/14 01:59:07;;;;;;;22.47;13.70;;;7.30;99.90;;;;;;5076951;28;20485;-72
2023/02/14 02:01:34;;;;;;;23.13;14.03;;;7.30;99.90;;;;;;5076039;28;20442;-70
2023/02/14 02:04:06;;;;;;;25.47;14.90;;;7.20;99.90;;;;;;5076628;28;20843;-71
2023/02/14 02:06:36;;;;;;;23.53;14.40;;;7.20;99.90;;;;;;5076304;28;20533;-69
2023/02/14 02:09:10;;;;;;;24.13;14.10;;;7.20;99.90;;;;;;5075843;28;20998;-72
2023/02/14 02:11:40;;;;;;;29.33;14.97;;;7.20;99.90;;;;;;5076153;28;20553;-71
2023/02/14 02:14:12;;;;;;;29.43;16.57;;;7.20;99.90;;;;;;5075989;28;20552;-71
2023/02/14 02:16:58;;;;;;;25.67;14.57;;;7.20;99.90;;;;;;5076858;28;20533;-71
2023/02/14 02:20:10;;;;;;;28.63;14.97;;;7.20;99.90;;;;;;5076400;28;20435;-72
2023/02/14 02:23:25;;;;;;;24.20;12.87;;;7.20;99.90;;;;;;5075164;28;20474;-69
2023/02/14 02:26:14;;;;;;;24.07;13.63;;;7.20;99.90;;;;;;5075758;28;20533;-71
2023/02/14 02:29:25;;;;;;;29.10;14.50;;;7.20;99.90;;;;;;5076005;28;20529;-71
2023/02/14 02:32:17;;;;;;;26.73;14.27;;;7.20;99.90;;;;;;5075429;28;20480;-71
2023/02/14 02:35:17;;;;;;;24.80;14.83;;;7.20;99.90;;;;;;5076622;28;20836;-73
2023/02/14 02:37:56;;;;;;;27.50;15.17;;;7.10;99.90;;;;;;5076447;28;20438;-72
2023/02/14 02:40:33;;;;;;;24.47;14.33;;;7.10;99.90;;;;;;5075841;28;20530;-71
2023/02/14 02:43:09;;;;;;;26.67;14.47;;;7.10;99.90;;;;;;5076244;28;20837;-72
2023/02/14 02:48:36;;;;;;;25.63;13.80;;;7.10;99.90;;;;;;5075659;28;20797;-70
2023/02/14 02:53:59;;;;;;;25.90;14.90;;;7.10;99.90;;;;;;5076664;28;20476;-71
2023/02/14 02:56:45;;;;;;;23.83;14.20;;;7.10;99.90;;;;;;5077026;28;20470;-71
2023/02/14 02:59:18;;;;;;;30.57;16.57;;;7.10;99.90;;;;;;5075681;28;20435;-72
2023/02/14 03:01:50;;;;;;;25.47;15.43;;;7.20;99.90;;;;;;5075008;28;20774;-71
2023/02/14 03:07:33;;;;;;;28.30;14.87;;;7.20;99.90;;;;;;5075747;28;20426;-71
2023/02/14 03:09:55;;;;;;;21.83;14.27;;;7.20;99.90;;;;;;5075044;28;20462;-71
2023/02/14 03:12:44;;;;;;;24.90;14.40;;;7.20;99.90;;;;;;5075484;28;20883;-71
2023/02/14 03:15:17;;;;;;;24.30;15.43;;;7.10;99.90;;;;;;5075541;28;20838;-71
2023/02/14 03:20:46;;;;;;;26.23;14.40;;;7.10;99.90;;;;;;5075325;28;20445;-71
2023/02/14 03:23:20;;;;;;;26.30;13.50;;;7.10;99.90;;;;;;5075568;28;20517;-70
2023/02/14 03:25:58;;;;;;;29.50;14.67;;;7.10;99.90;;;;;;5075480;28;20447;-72
2023/02/14 03:28:36;;;;;;;24.33;14.00;;;7.10;99.90;;;;;;5075396;28;20442;-70
2023/02/14 03:31:08;;;;;;;25.10;14.03;;;7.10;99.90;;;;;;5075406;28;20466;-71
2023/02/14 03:33:42;;;;;;;23.67;13.93;;;7.10;99.90;;;;;;5076180;28;20468;-72
2023/02/14 03:36:13;;;;;;;23.90;15.47;;;7.00;99.90;;;;;;5077132;28;20946;-72
2023/02/14 03:38:45;;;;;;;29.47;15.43;;;7.00;99.90;;;;;;5075310;28;20464;-71
2023/02/14 03:41:21;;;;;;;27.80;15.97;;;7.00;99.90;;;;;;5074725;28;20510;-71
2023/02/14 03:43:51;;;;;;;26.17;14.90;;;7.00;99.90;;;;;;5075063;28;20821;-71
2023/02/14 03:46:22;;;;;;;28.40;15.77;;;7.00;99.90;;;;;;5074661;28;20454;-71
2023/02/14 03:48:53;;;;;;;26.50;15.53;;;7.10;99.90;;;;;;5074812;28;20442;-71
2023/02/14 03:51:22;;;;;;;27.43;15.30;;;7.00;99.90;;;;;;5074373;28;20557;-72
2023/02/14 03:53:53;;;;;;;26.90;14.97;;;7.00;99.90;;;;;;5074600;28;20449;-72
2023/02/14 03:56:29;;;;;;;24.57;15.70;;;7.00;99.90;;;;;;5074801;28;20557;-72
2023/02/14 03:58:58;;;;;;;27.70;15.90;;;7.00;99.90;;;;;;5074904;28;20442;-71
2023/02/14 04:01:32;;;;;;;26.13;15.90;;;7.10;99.90;;;;;;5074958;28;20468;-74
2023/02/14 04:04:00;;;;;;;27.33;16.00;;;7.10;99.90;;;;;;5074821;28;20827;-71
2023/02/14 04:06:27;;;;;;;28.23;16.70;;;7.10;99.90;;;;;;5077081;28;20546;-71
2023/02/14 04:08:54;;;;;;;27.00;16.17;;;7.10;99.90;;;;;;5078323;28;20454;-70
2023/02/14 04:11:22;;;;;;;25.93;15.23;;;7.10;99.90;;;;;;5077908;28;20577;-71
2023/02/14 04:13:49;;;;;;;30.17;17.63;;;7.10;99.90;;;;;;5078028;28;20545;-71
2023/02/14 04:16:16;;;;;;;29.93;16.70;;;7.10;99.90;;;;;;5078704;28;20827;-71
2023/02/14 04:21:27;;;;;;;28.70;16.67;;;7.00;99.90;;;;;;5078170;28;20858;-72
2023/02/14 04:23:54;;;;;;;29.30;17.80;;;7.00;99.90;;;;;;5077950;28;20549;-71
2023/02/14 04:26:22;;;;;;;29.40;16.90;;;7.00;99.90;;;;;;5077828;28;20454;-72
2023/02/14 04:28:49;;;;;;;28.60;16.10;;;7.00;99.90;;;;;;5077836;28;20490;-72
2023/02/14 04:31:16;;;;;;;23.43;15.10;;;7.00;99.90;;;;;;5077757;28;20541;-71
2023/02/14 04:33:44;;;;;;;28.83;16.73;;;7.00;99.90;;;;;;5078317;28;20462;-72
2023/02/14 04:36:11;;;;;;;26.70;14.00;;;7.00;99.90;;;;;;5078446;28;20461;-71
2023/02/14 04:38:38;;;;;;;25.67;14.87;;;7.00;99.90;;;;;;5078191;28;20474;-71
2023/02/14 04:41:05;;;;;;;30.37;16.13;;;7.00;99.90;;;;;;5077925;28;20490;-71
2023/02/14 04:43:33;;;;;;;23.73;14.47;;;7.00;99.90;;;;;;5077722;28;20914;-70
2023/02/14 04:46:00;;;;;;;26.60;14.60;;;7.00;99.90;;;;;;5078563;28;20533;-72
2023/02/14 04:48:27;;;;;;;24.47;14.97;;;7.00;99.90;;;;;;5077510;28;20541;-73
2023/02/14 04:50:55;;;;;;;30.40;15.23;;;7.00;99.90;;;;;;5077296;28;20496;-72
2023/02/14 04:53:22;;;;;;;26.00;14.97;;;7.00;99.90;;;;;;5077401;28;20497;-71
2023/02/14 04:55:49;;;;;;;23.93;14.13;;;7.00;99.90;;;;;;5077202;28;20464;-71
2023/02/14 04:58:16;;;;;;;26.00;15.77;;;7.00;99.90;;;;;;5077252;28;20856;-71
2023/02/14 05:00:44;;;;;;;27.40;14.77;;;7.10;99.90;;;;;;5077274;28;20478;-72
2023/02/14 05:03:11;;;;;;;29.17;14.57;;;7.00;99.90;;;;;;5077249;28;20484;-71
2023/02/14 05:05:38;;;;;;;27.00;14.97;;;7.00;99.90;;;;;;5076978;28;20861;-72
2023/02/14 05:08:04;;;;;;;28.83;15.80;;;7.00;99.90;;;;;;5077856;28;20458;-74
2023/02/14 05:10:31;;;;;;;28.07;15.63;;;7.10;99.90;;;;;;5076929;28;20543;-70
2023/02/14 05:12:58;;;;;;;25.63;15.30;;;7.10;99.90;;;;;;5077853;28;20545;-71
2023/02/14 05:15:25;;;;;;;27.40;15.93;;;7.00;99.90;;;;;;5077453;28;20550;-72
2023/02/14 05:17:53;;;;;;;26.83;16.00;;;7.00;99.90;;;;;;5077760;28;20520;-72
2023/02/14 05:20:20;;;;;;;28.83;17.47;;;7.00;99.90;;;;;;5077169;28;20496;-72
2023/02/14 05:22:47;;;;;;;28.20;16.47;;;7.00;99.90;;;;;;5077569;28;20545;-72
2023/02/14 05:25:14;;;;;;;30.17;15.80;;;7.00;99.90;;;;;;5077396;28;20529;-72
2023/02/14 05:27:41;;;;;;;33.50;16.13;;;7.00;99.90;;;;;;5077463;28;20453;-72
2023/02/14 05:30:09;;;;;;;32.10;17.97;;;7.00;99.90;;;;;;5076371;28;20464;-71
2023/02/14 05:32:36;;;;;;;30.30;17.90;;;6.90;99.90;;;;;;5076679;28;20488;-72
2023/02/14 05:35:05;;;;;;;29.63;17.40;;;6.90;99.90;;;;;;5077085;28;20548;-71
2023/02/14 05:37:31;;;;;;;32.53;18.87;;;6.90;99.90;;;;;;5076844;28;20541;-72
2023/02/14 05:39:58;;;;;;;30.23;18.10;;;6.90;99.90;;;;;;5076916;28;20541;-73
2023/02/14 05:42:25;;;;;;;29.90;18.30;;;6.90;99.90;;;;;;5076363;28;20489;-71
2023/02/14 05:44:52;;;;;;;31.30;16.37;;;7.00;99.90;;;;;;5076449;28;20929;-71
2023/02/14 05:47:19;;;;;;;30.73;17.20;;;7.00;99.90;;;;;;5076476;28;20464;-72
2023/02/14 05:49:46;;;;;;;36.37;17.07;;;7.10;99.90;;;;;;5075905;28;20497;-72
2023/02/14 05:52:14;;;;;;;28.83;17.17;;;7.10;99.90;;;;;;5076551;28;20815;-71
2023/02/14 05:54:41;;;;;;;29.27;16.67;;;7.10;99.90;;;;;;5075927;28;20500;-70
2023/02/14 05:57:07;;;;;;;31.60;19.30;;;7.10;99.90;;;;;;5076264;28;20542;-72
2023/02/14 05:59:34;;;;;;;32.33;17.33;;;7.10;99.90;;;;;;5076025;28;20549;-72
2023/02/14 06:02:01;;;;;;;28.20;16.80;;;7.10;99.90;;;;;;5075747;28;20460;-71
2023/02/14 06:04:28;;;;;;;30.00;18.53;;;7.10;99.90;;;;;;5075968;28;20837;-70
2023/02/14 06:06:55;;;;;;;46.57;27.70;;;7.10;99.90;;;;;;5075650;28;20466;-72
2023/02/14 06:09:23;;;;;;;60.13;34.00;;;7.10;99.90;;;;;;5075889;28;20464;-72
2023/02/14 06:11:50;;;;;;;36.00;18.60;;;7.10;99.90;;;;;;5076230;28;20792;-70
2023/02/14 06:14:17;;;;;;;30.47;18.10;;;7.10;99.90;;;;;;5075617;28;20545;-72
2023/02/14 06:16:44;;;;;;;33.63;18.33;;;7.10;99.90;;;;;;5076375;28;20477;-72
2023/02/14 06:19:11;;;;;;;28.00;18.00;;;7.20;99.90;;;;;;5075169;28;20465;-71
2023/02/14 06:21:38;;;;;;;33.87;18.10;;;7.20;99.90;;;;;;5075229;28;20450;-72
2023/02/14 06:24:05;;;;;;;33.23;19.20;;;7.20;99.90;;;;;;5077759;28;20493;-70
2023/02/14 06:26:34;;;;;;;32.50;18.93;;;7.20;99.90;;;;;;5081518;28;20545;-72
2023/02/14 06:29:03;;;;;;;36.50;19.57;;;7.20;99.90;;;;;;5081268;28;20911;-72
2023/02/14 06:31:30;;;;;;;28.47;17.13;;;7.20;99.90;;;;;;5080673;28;20542;-73
2023/02/14 06:33:57;;;;;;;37.10;20.33;;;7.20;99.90;;;;;;5081364;28;20628;-71
2023/02/14 06:36:24;;;;;;;31.60;17.67;;;7.20;99.90;;;;;;5084059;28;20557;-70
2023/02/14 06:38:51;;;;;;;30.00;17.47;;;7.20;99.90;;;;;;5083765;28;20518;-72
2023/02/14 06:41:18;;;;;;;30.83;19.77;;;7.10;99.90;;;;;;5081775;28;20557;-71
2023/02/14 06:43:48;;;;;;;30.10;18.33;;;7.20;99.90;;;;;;5081108;28;20544;-72
2023/02/14 06:46:15;;;;;;;34.00;17.40;;;7.10;99.90;;;;;;5079931;28;20804;-71
2023/02/14 06:48:42;;;;;;;30.30;17.40;;;7.10;99.90;;;;;;5079763;28;20557;-73
2023/02/14 06:51:09;;;;;;;28.70;17.57;;;7.10;99.90;;;;;;5079723;28;20454;-72
2023/02/14 06:53:36;;;;;;;32.00;18.57;;;7.10;99.90;;;;;;5080390;28;20469;-71
2023/02/14 06:56:03;;;;;;;29.87;17.40;;;7.10;99.90;;;;;;5079803;28;20454;-70
2023/02/14 06:58:30;;;;;;;31.73;17.43;;;7.20;99.90;;;;;;5080226;28;20454;-72
2023/02/14 07:00:59;;;;;;;29.27;17.10;;;7.10;99.90;;;;;;5079654;28;20490;-73
2023/02/14 07:03:26;;;;;;;29.93;17.80;;;7.10;99.90;;;;;;5078684;28;20489;-72
2023/02/14 07:05:54;;;;;;;30.37;17.50;;;7.10;99.90;;;;;;5079465;28;20845;-72
2023/02/14 07:08:21;;;;;;;35.30;17.17;;;7.10;99.90;;;;;;5080563;28;20530;-71
2023/02/14 07:10:48;;;;;;;27.73;16.50;;;7.20;99.90;;;;;;5078220;28;20914;-71
2023/02/14 07:13:14;;;;;;;29.70;17.10;;;7.20;99.90;;;;;;5078929;28;20569;-70
2023/02/14 07:15:41;;;;;;;30.80;17.50;;;7.20;99.90;;;;;;5080806;28;20514;-71
2023/02/14 07:18:10;;;;;;;28.83;18.37;;;7.20;99.90;;;;;;5081106;28;20522;-70
2023/02/14 07:20:37;;;;;;;33.27;18.33;;;7.20;99.90;;;;;;5079749;28;20484;-71
2023/02/14 07:23:04;;;;;;;28.73;17.93;;;7.20;99.90;;;;;;5079122;28;20492;-72
2023/02/14 07:25:31;;;;;;;28.73;17.67;;;7.20;99.90;;;;;;5078852;28;20532;-72
2023/02/14 07:27:58;;;;;;;32.77;19.27;;;7.20;99.90;;;;;;5080699;28;20611;-71
2023/02/14 07:30:25;;;;;;;35.83;18.13;;;7.30;99.90;;;;;;5079174;28;20450;-71
2023/02/14 07:32:51;;;;;;;34.90;18.60;;;7.30;99.90;;;;;;5077543;28;20548;-71
2023/02/14 07:35:20;;;;;;;33.30;17.03;;;7.30;99.90;;;;;;5077505;28;20541;-70
2023/02/14 07:37:49;;;;;;;28.57;16.20;;;7.40;99.90;;;;;;5078392;28;20545;-71
2023/02/14 07:40:16;;;;;;;29.57;18.07;;;7.40;99.90;;;;;;5078383;28;20465;-72
2023/02/14 07:42:43;;;;;;;36.23;19.17;;;7.50;99.90;;;;;;5081636;28;20481;-72
2023/02/14 07:45:10;;;;;;;30.37;17.30;;;7.50;99.90;;;;;;5081935;28;20849;-72
2023/02/14 07:47:37;;;;;;;29.77;17.10;;;7.50;99.90;;;;;;5083749;28;20464;-72
2023/02/14 07:50:05;;;;;;;28.10;17.70;;;7.50;99.90;;;;;;5084094;28;20529;-72
2023/02/14 07:52:33;;;;;;;28.60;17.10;;;7.50;99.90;;;;;;5082550;28;20482;-70
2023/02/14 07:55:00;;;;;;;31.50;17.77;;;7.50;99.90;;;;;;5082778;28;20458;-72
2023/02/14 07:57:27;;;;;;;31.37;17.93;;;7.50;99.90;;;;;;5083213;28;20464;-73
2023/02/14 07:59:54;;;;;;;28.57;17.53;;;7.60;99.90;;;;;;5083626;28;20502;-71
2023/02/14 08:02:20;;;;;;;28.23;17.53;;;7.60;99.90;;;;;;5080517;28;20535;-71
2023/02/14 08:04:47;;;;;;;29.23;17.00;;;7.60;99.90;;;;;;5081738;28;20545;-71
2023/02/14 08:07:14;;;;;;;27.43;17.43;;;7.60;99.90;;;;;;5081602;28;20493;-72
2023/02/14 08:09:42;;;;;;;31.53;16.20;;;7.70;99.90;;;;;;5080506;28;20915;-73
2023/02/14 08:16:03;;;;;;;31.37;18.27;;;7.70;99.90;;;;;;5081500;28;20449;-71
2023/02/14 08:17:41;;;;;;;36.83;18.57;;;7.70;99.90;;;;;;5081745;28;20792;-73
2023/02/14 08:20:09;;;;;;;32.53;17.20;;;7.80;99.90;;;;;;5081691;28;20549;-72
2023/02/14 08:22:36;;;;;;;35.27;19.87;;;7.80;99.90;;;;;;5080938;28;20503;-70
2023/02/14 08:25:04;;;;;;;28.60;17.03;;;7.80;99.90;;;;;;5080911;28;20792;-72
2023/02/14 08:27:31;;;;;;;29.33;16.53;;;7.90;99.90;;;;;;5079573;28;20530;-72
2023/02/14 08:29:58;;;;;;;32.63;17.50;;;7.90;99.90;;;;;;5079999;28;20803;-71
2023/02/14 08:32:25;;;;;;;29.00;17.53;;;7.90;99.90;;;;;;5079435;28;21041;-72
2023/02/14 08:34:52;;;;;;;32.77;17.17;;;7.90;99.90;;;;;;5079335;28;20537;-71
2023/02/14 08:37:19;;;;;;;28.43;17.20;;;8.00;99.90;;;;;;5080657;28;20904;-72
2023/02/14 08:39:46;;;;;;;32.27;18.20;;;8.00;99.90;;;;;;5080981;28;20999;-73
2023/02/14 08:42:14;;;;;;;28.53;17.77;;;8.00;99.90;;;;;;5080624;28;20514;-71
2023/02/14 08:44:41;;;;;;;47.77;19.60;;;8.10;99.90;;;;;;5080218;28;20468;-71
2023/02/14 08:47:07;;;;;;;35.07;17.83;;;8.10;99.90;;;;;;5080091;28;20938;-71
2023/02/14 08:49:34;;;;;;;29.40;17.03;;;8.10;99.90;;;;;;5080343;28;20862;-71
2023/02/14 08:52:01;;;;;;;30.63;18.17;;;8.10;99.90;;;;;;5079669;28;20568;-72
2023/02/14 08:54:28;;;;;;;37.33;19.07;;;8.20;99.90;;;;;;5079960;28;20458;-72
2023/02/14 08:56:55;;;;;;;32.00;20.53;;;8.20;99.90;;;;;;5079248;28;20762;-72
2023/02/14 08:59:23;;;;;;;33.70;19.37;;;8.20;99.90;;;;;;5079133;28;20468;-71
2023/02/14 09:01:50;;;;;;;32.07;18.33;;;8.30;99.90;;;;;;5078839;28;20457;-71
2023/02/14 09:04:17;;;;;;;30.03;18.50;;;8.30;99.90;;;;;;5078341;28;20454;-71
2023/02/14 09:06:44;;;;;;;34.57;20.07;;;8.30;99.90;;;;;;5078628;28;20490;-71
2023/02/14 09:09:10;;;;;;;34.30;19.50;;;8.30;99.90;;;;;;5079353;28;20513;-72
2023/02/14 09:11:37;;;;;;;51.40;19.83;;;8.30;99.90;;;;;;5079472;28;20458;-71
2023/02/14 09:14:04;;;;;;;32.63;19.30;;;8.30;99.90;;;;;;5078406;28;20494;-72
2023/02/14 09:16:32;;;;;;;31.23;18.77;;;8.40;99.90;;;;;;5078943;28;20486;-70
2023/02/14 09:18:59;;;;;;;26.57;16.20;;;8.40;99.90;;;;;;5078257;28;20502;-73
2023/02/14 09:21:28;;;;;;;30.43;18.07;;;8.50;99.90;;;;;;5078432;28;20497;-72
2023/02/14 09:23:55;;;;;;;36.90;19.63;;;8.50;99.90;;;;;;5079362;28;20562;-73
2023/02/14 09:26:22;;;;;;;30.53;17.77;;;8.60;99.90;;;;;;5078997;28;20469;-71
2023/02/14 09:28:49;;;;;;;32.40;19.70;;;8.50;99.90;;;;;;5078070;28;20839;-72
2023/02/14 09:31:18;;;;;;;35.03;21.00;;;8.60;99.90;;;;;;5078331;28;20454;-71
2023/02/14 09:36:33;;;;;;;26.50;17.77;;;8.60;99.90;;;;;;5079093;28;20430;-72
2023/02/14 09:39:00;;;;;;;33.03;19.23;;;8.70;99.90;;;;;;5085600;28;20762;-72
2023/02/14 09:42:01;;;;;;;34.30;20.73;;;8.70;99.90;;;;;;5081778;28;20570;-72
2023/02/14 09:44:35;;;;;;;32.83;20.03;;;8.70;99.90;;;;;;5078699;28;20734;-73
2023/02/14 09:47:09;;;;;;;30.10;18.43;;;8.80;99.90;;;;;;5077977;28;20523;-72
2023/02/14 09:49:39;;;;;;;30.87;19.80;;;8.80;99.90;;;;;;5077757;28;20434;-72
2023/02/14 09:52:10;;;;;;;29.90;18.40;;;8.80;99.90;;;;;;5077177;28;20548;-72
2023/02/14 09:54:37;;;;;;;33.03;20.17;;;8.80;99.90;;;;;;5090703;28;20489;-71
2023/02/14 09:57:11;;;;;;;29.20;19.80;;;8.90;99.90;;;;;;5097663;28;20537;-71
2023/02/14 09:59:47;;;;;;;30.80;18.63;;;8.90;99.90;;;;;;5098193;28;20457;-72
2023/02/14 10:02:31;;;;;;;32.00;19.30;;;8.90;99.90;;;;;;5097146;28;20444;-72
2023/02/14 10:05:06;;;;;;;32.60;19.80;;;8.80;99.90;;;;;;5095757;28;20453;-72
2023/02/14 10:07:39;;;;;;;33.80;20.47;;;8.90;99.90;;;;;;5097037;28;20834;-71
2023/02/14 10:10:14;;;;;;;34.97;20.80;;;8.90;99.90;;;;;;5097060;28;20438;-73
2023/02/14 10:12:46;;;;;;;32.63;20.30;;;9.00;99.90;;;;;;5096439;28;20461;-72
2023/02/14 10:15:15;;;;;;;30.13;19.67;;;9.00;99.90;;;;;;5077357;28;20549;-71
2023/02/14 10:17:46;;;;;;;35.23;19.70;;;9.10;99.90;;;;;;5077418;28;20798;-72
2023/02/14 10:20:26;;;;;;;33.00;19.83;;;9.20;99.90;;;;;;5077385;28;20542;-72
2023/02/14 10:23:00;;;;;;;31.17;19.73;;;9.20;99.90;;;;;;5076913;28;20438;-71
2023/02/14 10:25:30;;;;;;;32.30;18.70;;;9.20;99.90;;;;;;5076629;28;20435;-72
2023/02/14 10:28:01;;;;;;;31.70;19.20;;;9.20;99.90;;;;;;5077162;28;20461;-72
2023/02/14 10:30:34;;;;;;;36.13;21.20;;;9.20;99.90;;;;;;5076745;28;20509;-72
2023/02/14 10:33:05;;;;;;;27.13;18.43;;;9.20;99.90;;;;;;5076256;28;20462;-72
2023/02/14 10:35:43;;;;;;;32.40;20.20;;;9.20;99.90;;;;;;5076957;28;20723;-72
2023/02/14 10:38:21;;;;;;;36.83;20.20;;;9.20;99.90;;;;;;5076785;28;20438;-71
2023/02/14 10:41:10;;;;;;;34.30;19.30;;;9.20;99.90;;;;;;5076832;28;20834;-72
2023/02/14 10:43:46;;;;;;;30.83;19.10;;;9.20;99.90;;;;;;5077987;28;20530;-71
2023/02/14 10:46:19;;;;;;;25.90;17.63;;;9.20;99.90;;;;;;5077556;28;20452;-71
2023/02/14 10:48:55;;;;;;;32.40;21.33;;;9.20;99.90;;;;;;5078349;28;20458;-72
2023/02/14 10:51:30;;;;;;;30.47;19.90;;;9.20;99.90;;;;;;5076724;28;20835;-72
2023/02/14 10:54:11;;;;;;;33.07;21.07;;;9.10;99.90;;;;;;5075823;28;20469;-71
2023/02/14 10:56:42;;;;;;;31.90;20.00;;;9.20;99.90;;;;;;5075994;28;20443;-72
2023/02/14 10:59:18;;;;;;;36.90;20.07;;;9.20;99.90;;;;;;5076766;28;20454;-74
2023/02/14 11:01:46;;;;;;;26.93;18.50;;;9.20;99.90;;;;;;5076977;28;20533;-70
2023/02/14 11:04:16;;;;;;;32.00;19.70;;;9.20;99.90;;;;;;5076802;28;20450;-72
2023/02/14 11:06:47;;;;;;;31.20;18.67;;;9.20;99.90;;;;;;5076279;28;20454;-71
2023/02/14 11:09:14;;;;;;;31.70;20.53;;;9.20;99.90;;;;;;5077524;28;20748;-72
2023/02/14 11:11:45;;;;;;;30.60;20.27;;;9.10;99.90;;;;;;5076904;28;20450;-73
2023/02/14 11:14:27;;;;;;;32.03;17.43;;;9.20;99.90;;;;;;5078455;28;20504;-72
2023/02/14 11:16:55;;;;;;;34.10;19.50;;;9.20;99.90;;;;;;5082785;28;20454;-71
2023/02/14 11:19:24;;;;;;;29.73;18.70;;;9.20;99.90;;;;;;5082168;28;20550;-72
2023/02/14 11:21:54;;;;;;;31.30;17.37;;;9.20;99.90;;;;;;5081608;28;20793;-71
2023/02/14 11:24:30;;;;;;;29.27;19.03;;;9.20;99.90;;;;;;5081394;28;20533;-73
2023/02/14 11:27:00;;;;;;;29.80;18.57;;;9.30;99.90;;;;;;5081022;28;20442;-71
2023/02/14 11:29:30;;;;;;;28.40;19.07;;;9.30;99.90;;;;;;5086677;28;20458;-71
2023/02/14 11:32:07;;;;;;;34.00;21.27;;;9.40;99.90;;;;;;5100803;28;20484;-71
2023/02/14 11:34:36;;;;;;;36.83;20.70;;;9.40;99.90;;;;;;5081994;28;20466;-71
2023/02/14 11:37:17;;;;;;;30.60;18.10;;;9.40;99.90;;;;;;5081413;28;20469;-72
2023/02/14 11:39:44;;;;;;;30.40;18.33;;;9.40;99.90;;;;;;5080697;28;20899;-71
2023/02/14 11:42:12;;;;;;;27.37;17.80;;;9.40;99.90;;;;;;5080606;28;20561;-73
2023/02/14 11:44:54;;;;;;;34.50;19.17;;;9.50;99.90;;;;;;5081011;28;20478;-72
2023/02/14 11:47:27;;;;;;;25.87;17.60;;;9.60;99.90;;;;;;5080924;28;20501;-72
2023/02/14 11:49:57;;;;;;;30.20;20.80;;;9.60;99.90;;;;;;5081079;28;20438;-72
2023/02/14 11:52:28;;;;;;;28.80;17.93;;;9.60;99.90;;;;;;5080511;28;20910;-72
2023/02/14 11:54:56;;;;;;;30.50;19.00;;;9.40;99.90;;;;;;5081724;28;20476;-72
2023/02/14 11:57:27;;;;;;;30.07;18.80;;;9.30;99.90;;;;;;5081467;28;20453;-72
2023/02/14 11:59:56;;;;;;;27.90;18.73;;;9.10;99.90;;;;;;5082021;28;20475;-71
2023/02/14 12:02:31;;;;;;;30.30;18.40;;;9.00;99.90;;;;;;5081118;28;20544;-73
2023/02/14 12:05:01;;;;;;;27.93;18.03;;;9.00;99.90;;;;;;5081523;28;20438;-72
2023/02/14 12:07:32;;;;;;;27.23;17.80;;;9.00;99.90;;;;;;5079667;28;20464;-72
2023/02/14 12:10:15;;;;;;;25.63;17.27;;;8.90;99.90;;;;;;5078310;28;20438;-72
2023/02/14 12:12:53;;;;;;;31.00;19.27;;;8.90;99.90;;;;;;5078163;28;20768;-72
2023/02/14 12:15:27;;;;;;;28.77;18.30;;;8.90;99.90;;;;;;5079202;28;20438;-73
2023/02/14 12:18:02;;;;;;;28.43;18.47;;;9.00;99.90;;;;;;5079030;28;20511;-72
2023/02/14 12:20:39;;;;;;;26.80;17.00;;;8.90;99.90;;;;;;5078509;28;20462;-72
2023/02/14 12:23:16;;;;;;;33.77;21.10;;;8.80;99.90;;;;;;5078782;28;20462;-72
2023/02/14 12:25:50;;;;;;;33.30;19.63;;;8.80;99.90;;;;;;5077562;28;20448;-72
2023/02/14 12:28:21;;;;;;;28.53;17.43;;;8.80;99.90;;;;;;5078043;28;20899;-72
2023/02/14 12:30:49;;;;;;;27.20;17.67;;;8.80;99.90;;;;;;5077359;28;20770;-73
2023/02/14 12:33:19;;;;;;;29.17;18.97;;;8.80;99.90;;;;;;5077777;28;20492;-71
2023/02/14 12:35:54;;;;;;;34.30;24.40;;;8.90;99.90;;;;;;5078245;28;20553;-72
2023/02/14 12:38:29;;;;;;;30.30;20.43;;;9.10;99.90;;;;;;5079118;28;20452;-72
2023/02/14 12:41:04;;;;;;;24.87;16.70;;;9.10;99.90;;;;;;5083773;28;20492;-72
2023/02/14 12:43:46;;;;;;;25.97;17.80;;;9.30;99.90;;;;;;5085087;28;20529;-72
2023/02/14 12:46:40;;;;;;;24.67;17.17;;;9.40;99.90;;;;;;5085973;28;20830;-72
2023/02/14 12:49:38;;;;;;;27.30;18.00;;;9.50;99.90;;;;;;5078639;28;20446;-71
2023/02/14 12:52:18;;;;;;;29.37;18.03;;;9.50;99.90;;;;;;5076961;28;20858;-72
2023/02/14 12:55:02;;;;;;;27.40;17.10;;;9.60;99.90;;;;;;5077318;28;21009;-71
2023/02/14 12:57:39;;;;;;;27.83;17.30;;;9.30;99.90;;;;;;5077895;28;20918;-72
2023/02/14 13:00:22;;;;;;;25.13;17.27;;;9.20;99.90;;;;;;5077024;28;20529;-70
2023/02/14 13:03:24;;;;;;;24.73;16.67;;;9.20;99.90;;;;;;5077026;28;20955;-72
2023/02/14 13:06:00;;;;;;;26.50;16.43;;;9.10;99.90;;;;;;5076942;28;20474;-72
2023/02/14 13:08:52;;;;;;;25.63;16.43;;;9.20;99.90;;;;;;5076669;28;20521;-72
2023/02/14 13:11:34;;;;;;;27.90;17.57;;;9.30;99.90;;;;;;5066000;28;20464;-71
2023/02/14 13:14:13;;;;;;;27.57;17.77;;;9.20;99.90;;;;;;5076189;28;20554;-72